sensor_id;sensor_type;location;lat;lon;timestamp;P1;durP1;ratioP1;P2;durP2;ratioP2
84864;SDS011;75122;41.650;25.368;2024-01-07T00:02:25;2.22;;;0.88;;
84864;SDS011;75122;41.650;25.368;2024-01-07T00:04:50;4.28;;;1.42;;
84864;SDS011;75122;41.650;25.368;2024-01-07T00:07:16;7.40;;;2.47;;
84864;SDS011;75122;41.650;25.368;2024-01-07T00:09:41;3.42;;;1.48;;
84864;SDS011;75122;41.650;25.368;2024-01-07T00:12:07;5.70;;;1.02;;
84864;SDS011;75122;41.650;25.368;2024-01-07T00:14:32;11.32;;;1.50;;
84864;SDS011;75122;41.650;25.368;2024-01-07T00:16:58;7.22;;;2.78;;
84864;SDS011;75122;41.650;25.368;2024-01-07T00:19:23;4.93;;;1.02;;
84864;SDS011;75122;41.650;25.368;2024-01-07T00:21:49;3.78;;;1.00;;
84864;SDS011;75122;41.650;25.368;2024-01-07T00:24:15;2.72;;;0.90;;
84864;SDS011;75122;41.650;25.368;2024-01-07T00:26:40;4.18;;;0.85;;
84864;SDS011;75122;41.650;25.368;2024-01-07T00:29:06;3.80;;;1.00;;
84864;SDS011;75122;41.650;25.368;2024-01-07T00:31:32;6.88;;;1.33;;
84864;SDS011;75122;41.650;25.368;2024-01-07T00:33:57;4.57;;;1.00;;
84864;SDS011;75122;41.650;25.368;2024-01-07T00:36:22;7.13;;;1.17;;
84864;SDS011;75122;41.650;25.368;2024-01-07T00:38:48;3.95;;;1.45;;
84864;SDS011;75122;41.650;25.368;2024-01-07T00:41:13;5.80;;;1.05;;
84864;SDS011;75122;41.650;25.368;2024-01-07T00:43:39;2.75;;;1.08;;
84864;SDS011;75122;41.650;25.368;2024-01-07T00:46:05;2.47;;;1.33;;
84864;SDS011;75122;41.650;25.368;2024-01-07T00:48:31;4.35;;;1.52;;
84864;SDS011;75122;41.650;25.368;2024-01-07T00:50:56;5.00;;;1.52;;
84864;SDS011;75122;41.650;25.368;2024-01-07T00:53:22;4.95;;;1.55;;
84864;SDS011;75122;41.650;25.368;2024-01-07T00:55:47;5.63;;;1.92;;
84864;SDS011;75122;41.650;25.368;2024-01-07T00:58:12;6.93;;;2.60;;
84864;SDS011;75122;41.650;25.368;2024-01-07T01:00:38;8.57;;;2.28;;
84864;SDS011;75122;41.650;25.368;2024-01-07T01:03:03;7.72;;;2.22;;
84864;SDS011;75122;41.650;25.368;2024-01-07T01:05:29;8.68;;;1.95;;
84864;SDS011;75122;41.650;25.368;2024-01-07T01:07:54;8.77;;;2.33;;
84864;SDS011;75122;41.650;25.368;2024-01-07T01:10:20;5.93;;;1.80;;
84864;SDS011;75122;41.650;25.368;2024-01-07T01:12:45;2.90;;;0.80;;
84864;SDS011;75122;41.650;25.368;2024-01-07T01:15:11;9.02;;;1.95;;
84864;SDS011;75122;41.650;25.368;2024-01-07T01:17:36;8.18;;;2.08;;
84864;SDS011;75122;41.650;25.368;2024-01-07T01:20:02;6.80;;;1.90;;
84864;SDS011;75122;41.650;25.368;2024-01-07T01:22:28;8.02;;;1.70;;
84864;SDS011;75122;41.650;25.368;2024-01-07T01:24:54;7.43;;;2.58;;
84864;SDS011;75122;41.650;25.368;2024-01-07T01:27:21;6.97;;;1.63;;
84864;SDS011;75122;41.650;25.368;2024-01-07T01:29:46;5.70;;;1.55;;
84864;SDS011;75122;41.650;25.368;2024-01-07T01:32:12;7.68;;;1.88;;
84864;SDS011;75122;41.650;25.368;2024-01-07T01:34:37;7.10;;;1.23;;
84864;SDS011;75122;41.650;25.368;2024-01-07T01:37:05;8.68;;;1.23;;
84864;SDS011;75122;41.650;25.368;2024-01-07T01:39:30;4.15;;;1.42;;
84864;SDS011;75122;41.650;25.368;2024-01-07T01:41:56;9.43;;;1.80;;
84864;SDS011;75122;41.650;25.368;2024-01-07T01:44:23;9.15;;;1.38;;
84864;SDS011;75122;41.650;25.368;2024-01-07T01:46:48;9.55;;;1.90;;
84864;SDS011;75122;41.650;25.368;2024-01-07T01:49:14;12.02;;;1.50;;
84864;SDS011;75122;41.650;25.368;2024-01-07T01:51:40;13.10;;;3.08;;
84864;SDS011;75122;41.650;25.368;2024-01-07T01:54:06;7.05;;;2.22;;
84864;SDS011;75122;41.650;25.368;2024-01-07T01:56:31;11.43;;;2.20;;
84864;SDS011;75122;41.650;25.368;2024-01-07T01:58:58;9.43;;;2.95;;
84864;SDS011;75122;41.650;25.368;2024-01-07T02:01:24;6.13;;;1.83;;
84864;SDS011;75122;41.650;25.368;2024-01-07T02:03:50;7.60;;;2.17;;
84864;SDS011;75122;41.650;25.368;2024-01-07T02:06:17;8.10;;;1.70;;
84864;SDS011;75122;41.650;25.368;2024-01-07T02:08:43;5.75;;;1.83;;
84864;SDS011;75122;41.650;25.368;2024-01-07T02:11:18;9.45;;;1.75;;
84864;SDS011;75122;41.650;25.368;2024-01-07T02:13:45;11.13;;;1.98;;
84864;SDS011;75122;41.650;25.368;2024-01-07T02:16:10;9.07;;;2.25;;
84864;SDS011;75122;41.650;25.368;2024-01-07T02:18:37;5.05;;;1.92;;
84864;SDS011;75122;41.650;25.368;2024-01-07T02:21:03;6.57;;;1.92;;
84864;SDS011;75122;41.650;25.368;2024-01-07T02:23:29;6.03;;;1.70;;
84864;SDS011;75122;41.650;25.368;2024-01-07T02:25:54;8.35;;;2.05;;
84864;SDS011;75122;41.650;25.368;2024-01-07T02:28:20;6.13;;;1.73;;
84864;SDS011;75122;41.650;25.368;2024-01-07T02:30:45;9.60;;;2.35;;
84864;SDS011;75122;41.650;25.368;2024-01-07T02:33:10;9.52;;;1.63;;
84864;SDS011;75122;41.650;25.368;2024-01-07T02:35:36;8.18;;;1.90;;
84864;SDS011;75122;41.650;25.368;2024-01-07T02:38:01;4.57;;;1.40;;
84864;SDS011;75122;41.650;25.368;2024-01-07T02:40:29;8.68;;;2.47;;
84864;SDS011;75122;41.650;25.368;2024-01-07T02:42:55;6.45;;;2.38;;
84864;SDS011;75122;41.650;25.368;2024-01-07T02:45:21;9.25;;;1.92;;
84864;SDS011;75122;41.650;25.368;2024-01-07T02:47:47;9.00;;;2.00;;
84864;SDS011;75122;41.650;25.368;2024-01-07T02:50:12;7.78;;;1.75;;
84864;SDS011;75122;41.650;25.368;2024-01-07T02:52:38;8.73;;;1.70;;
84864;SDS011;75122;41.650;25.368;2024-01-07T02:55:03;10.88;;;2.28;;
84864;SDS011;75122;41.650;25.368;2024-01-07T02:57:29;3.40;;;1.02;;
84864;SDS011;75122;41.650;25.368;2024-01-07T02:59:55;2.20;;;0.68;;
84864;SDS011;75122;41.650;25.368;2024-01-07T03:02:20;5.38;;;0.77;;
84864;SDS011;75122;41.650;25.368;2024-01-07T03:04:45;5.32;;;0.88;;
84864;SDS011;75122;41.650;25.368;2024-01-07T03:07:11;3.97;;;1.10;;
84864;SDS011;75122;41.650;25.368;2024-01-07T03:09:36;6.63;;;1.30;;
84864;SDS011;75122;41.650;25.368;2024-01-07T03:12:02;5.70;;;1.10;;
84864;SDS011;75122;41.650;25.368;2024-01-07T03:14:27;3.03;;;0.60;;
84864;SDS011;75122;41.650;25.368;2024-01-07T03:16:53;3.92;;;0.80;;
84864;SDS011;75122;41.650;25.368;2024-01-07T03:19:18;3.30;;;0.20;;
84864;SDS011;75122;41.650;25.368;2024-01-07T03:21:43;0.40;;;0.20;;
84864;SDS011;75122;41.650;25.368;2024-01-07T03:24:09;1.23;;;0.45;;
84864;SDS011;75122;41.650;25.368;2024-01-07T03:26:35;2.25;;;0.30;;
84864;SDS011;75122;41.650;25.368;2024-01-07T03:29:01;1.38;;;0.32;;
84864;SDS011;75122;41.650;25.368;2024-01-07T03:31:27;1.45;;;0.20;;
84864;SDS011;75122;41.650;25.368;2024-01-07T03:33:53;3.03;;;0.30;;
84864;SDS011;75122;41.650;25.368;2024-01-07T03:36:19;0.20;;;0.20;;
84864;SDS011;75122;41.650;25.368;2024-01-07T03:38:44;0.77;;;0.20;;
84864;SDS011;75122;41.650;25.368;2024-01-07T03:41:15;1.25;;;0.40;;
84864;SDS011;75122;41.650;25.368;2024-01-07T03:43:42;1.85;;;0.30;;
84864;SDS011;75122;41.650;25.368;2024-01-07T03:46:07;0.08;;;0.08;;
84864;SDS011;75122;41.650;25.368;2024-01-07T03:48:33;0.08;;;0.08;;
84864;SDS011;75122;41.650;25.368;2024-01-07T03:50:59;0.68;;;0.20;;
84864;SDS011;75122;41.650;25.368;2024-01-07T03:53:24;2.92;;;0.20;;
84864;SDS011;75122;41.650;25.368;2024-01-07T03:55:50;0.45;;;0.20;;
84864;SDS011;75122;41.650;25.368;2024-01-07T03:58:15;1.85;;;0.17;;
84864;SDS011;75122;41.650;25.368;2024-01-07T04:00:41;1.00;;;0.20;;
84864;SDS011;75122;41.650;25.368;2024-01-07T04:03:07;0.88;;;0.13;;
84864;SDS011;75122;41.650;25.368;2024-01-07T04:05:32;1.65;;;1.17;;
84864;SDS011;75122;41.650;25.368;2024-01-07T04:07:59;0.10;;;0.10;;
84864;SDS011;75122;41.650;25.368;2024-01-07T04:10:26;1.17;;;0.20;;
84864;SDS011;75122;41.650;25.368;2024-01-07T04:12:51;2.00;;;0.10;;
84864;SDS011;75122;41.650;25.368;2024-01-07T04:15:17;1.17;;;0.20;;
84864;SDS011;75122;41.650;25.368;2024-01-07T04:17:42;0.75;;;0.20;;
84864;SDS011;75122;41.650;25.368;2024-01-07T04:20:08;3.08;;;0.17;;
84864;SDS011;75122;41.650;25.368;2024-01-07T04:22:33;2.05;;;0.10;;
84864;SDS011;75122;41.650;25.368;2024-01-07T04:24:59;1.33;;;0.30;;
84864;SDS011;75122;41.650;25.368;2024-01-07T04:27:24;4.28;;;0.68;;
84864;SDS011;75122;41.650;25.368;2024-01-07T04:29:50;2.53;;;0.82;;
84864;SDS011;75122;41.650;25.368;2024-01-07T04:32:16;1.42;;;0.52;;
84864;SDS011;75122;41.650;25.368;2024-01-07T04:34:41;4.15;;;1.00;;
84864;SDS011;75122;41.650;25.368;2024-01-07T04:37:07;42.08;;;18.90;;
84864;SDS011;75122;41.650;25.368;2024-01-07T04:39:32;15.80;;;6.50;;
84864;SDS011;75122;41.650;25.368;2024-01-07T04:41:57;25.25;;;11.20;;
84864;SDS011;75122;41.650;25.368;2024-01-07T04:44:23;27.40;;;14.68;;
84864;SDS011;75122;41.650;25.368;2024-01-07T04:46:48;17.08;;;9.05;;
84864;SDS011;75122;41.650;25.368;2024-01-07T04:49:14;10.88;;;5.43;;
84864;SDS011;75122;41.650;25.368;2024-01-07T04:51:40;23.58;;;12.50;;
84864;SDS011;75122;41.650;25.368;2024-01-07T04:54:05;11.23;;;6.32;;
84864;SDS011;75122;41.650;25.368;2024-01-07T04:56:31;8.65;;;5.80;;
84864;SDS011;75122;41.650;25.368;2024-01-07T04:58:57;7.60;;;4.03;;
84864;SDS011;75122;41.650;25.368;2024-01-07T05:01:23;5.82;;;3.45;;
84864;SDS011;75122;41.650;25.368;2024-01-07T05:03:48;4.72;;;2.35;;
84864;SDS011;75122;41.650;25.368;2024-01-07T05:06:14;4.43;;;1.30;;
84864;SDS011;75122;41.650;25.368;2024-01-07T05:08:40;2.38;;;0.80;;
84864;SDS011;75122;41.650;25.368;2024-01-07T05:11:06;7.38;;;3.45;;
84864;SDS011;75122;41.650;25.368;2024-01-07T05:13:32;6.00;;;1.92;;
84864;SDS011;75122;41.650;25.368;2024-01-07T05:15:57;6.97;;;3.05;;
84864;SDS011;75122;41.650;25.368;2024-01-07T05:18:23;5.30;;;2.47;;
84864;SDS011;75122;41.650;25.368;2024-01-07T05:20:52;6.45;;;1.42;;
84864;SDS011;75122;41.650;25.368;2024-01-07T05:23:17;4.05;;;1.95;;
84864;SDS011;75122;41.650;25.368;2024-01-07T05:25:43;4.05;;;1.65;;
84864;SDS011;75122;41.650;25.368;2024-01-07T05:28:09;4.38;;;2.10;;
84864;SDS011;75122;41.650;25.368;2024-01-07T05:30:35;0.73;;;0.40;;
84864;SDS011;75122;41.650;25.368;2024-01-07T05:33:01;4.82;;;1.05;;
84864;SDS011;75122;41.650;25.368;2024-01-07T05:35:27;3.50;;;0.65;;
84864;SDS011;75122;41.650;25.368;2024-01-07T05:37:52;2.65;;;1.38;;
84864;SDS011;75122;41.650;25.368;2024-01-07T05:40:18;8.05;;;4.40;;
84864;SDS011;75122;41.650;25.368;2024-01-07T05:42:43;5.40;;;1.42;;
84864;SDS011;75122;41.650;25.368;2024-01-07T05:45:09;8.77;;;4.50;;
84864;SDS011;75122;41.650;25.368;2024-01-07T05:47:34;8.32;;;2.13;;
84864;SDS011;75122;41.650;25.368;2024-01-07T05:50:00;8.32;;;2.97;;
84864;SDS011;75122;41.650;25.368;2024-01-07T05:52:25;8.25;;;1.30;;
84864;SDS011;75122;41.650;25.368;2024-01-07T05:54:51;9.27;;;1.48;;
84864;SDS011;75122;41.650;25.368;2024-01-07T05:57:16;7.88;;;1.35;;
84864;SDS011;75122;41.650;25.368;2024-01-07T05:59:43;10.63;;;2.40;;
84864;SDS011;75122;41.650;25.368;2024-01-07T06:02:09;13.07;;;6.43;;
84864;SDS011;75122;41.650;25.368;2024-01-07T06:04:34;10.82;;;3.33;;
84864;SDS011;75122;41.650;25.368;2024-01-07T06:06:59;11.73;;;2.45;;
84864;SDS011;75122;41.650;25.368;2024-01-07T06:09:25;8.07;;;2.20;;
84864;SDS011;75122;41.650;25.368;2024-01-07T06:11:50;11.32;;;4.18;;
84864;SDS011;75122;41.650;25.368;2024-01-07T06:14:16;11.20;;;4.10;;
84864;SDS011;75122;41.650;25.368;2024-01-07T06:16:41;16.27;;;5.15;;
84864;SDS011;75122;41.650;25.368;2024-01-07T06:19:07;9.60;;;4.68;;
84864;SDS011;75122;41.650;25.368;2024-01-07T06:21:33;13.93;;;3.30;;
84864;SDS011;75122;41.650;25.368;2024-01-07T06:23:58;13.80;;;5.57;;
84864;SDS011;75122;41.650;25.368;2024-01-07T06:26:24;27.65;;;9.43;;
84864;SDS011;75122;41.650;25.368;2024-01-07T06:28:49;22.52;;;9.23;;
84864;SDS011;75122;41.650;25.368;2024-01-07T06:31:15;33.25;;;11.18;;
84864;SDS011;75122;41.650;25.368;2024-01-07T06:33:40;22.67;;;8.38;;
84864;SDS011;75122;41.650;25.368;2024-01-07T06:36:06;19.63;;;10.18;;
84864;SDS011;75122;41.650;25.368;2024-01-07T06:38:31;31.05;;;11.23;;
84864;SDS011;75122;41.650;25.368;2024-01-07T06:40:57;37.75;;;15.93;;
84864;SDS011;75122;41.650;25.368;2024-01-07T06:43:26;18.70;;;8.75;;
84864;SDS011;75122;41.650;25.368;2024-01-07T06:45:52;23.98;;;10.18;;
84864;SDS011;75122;41.650;25.368;2024-01-07T06:48:18;29.60;;;15.82;;
84864;SDS011;75122;41.650;25.368;2024-01-07T06:50:44;33.50;;;11.68;;
84864;SDS011;75122;41.650;25.368;2024-01-07T06:53:09;24.42;;;9.82;;
84864;SDS011;75122;41.650;25.368;2024-01-07T06:55:35;44.75;;;17.10;;
84864;SDS011;75122;41.650;25.368;2024-01-07T06:58:01;16.95;;;7.05;;
84864;SDS011;75122;41.650;25.368;2024-01-07T07:00:27;12.48;;;5.25;;
84864;SDS011;75122;41.650;25.368;2024-01-07T07:02:53;14.90;;;3.40;;
84864;SDS011;75122;41.650;25.368;2024-01-07T07:05:18;17.08;;;7.38;;
84864;SDS011;75122;41.650;25.368;2024-01-07T07:07:44;23.77;;;8.05;;
84864;SDS011;75122;41.650;25.368;2024-01-07T07:10:10;14.70;;;2.92;;
84864;SDS011;75122;41.650;25.368;2024-01-07T07:12:36;11.27;;;2.65;;
84864;SDS011;75122;41.650;25.368;2024-01-07T07:15:01;13.40;;;4.63;;
84864;SDS011;75122;41.650;25.368;2024-01-07T07:17:28;21.73;;;6.72;;
84864;SDS011;75122;41.650;25.368;2024-01-07T07:19:53;22.05;;;8.70;;
84864;SDS011;75122;41.650;25.368;2024-01-07T07:22:19;21.48;;;9.25;;
84864;SDS011;75122;41.650;25.368;2024-01-07T07:24:44;14.00;;;5.90;;
84864;SDS011;75122;41.650;25.368;2024-01-07T07:27:10;15.02;;;5.97;;
84864;SDS011;75122;41.650;25.368;2024-01-07T07:29:35;18.40;;;6.88;;
84864;SDS011;75122;41.650;25.368;2024-01-07T07:32:00;13.38;;;6.47;;
84864;SDS011;75122;41.650;25.368;2024-01-07T07:34:27;22.58;;;6.55;;
84864;SDS011;75122;41.650;25.368;2024-01-07T07:36:52;11.35;;;2.53;;
84864;SDS011;75122;41.650;25.368;2024-01-07T07:39:17;11.35;;;2.03;;
84864;SDS011;75122;41.650;25.368;2024-01-07T07:41:43;9.48;;;2.33;;
84864;SDS011;75122;41.650;25.368;2024-01-07T07:44:08;14.77;;;2.35;;
84864;SDS011;75122;41.650;25.368;2024-01-07T07:46:34;6.85;;;2.42;;
84864;SDS011;75122;41.650;25.368;2024-01-07T07:48:59;15.07;;;6.03;;
84864;SDS011;75122;41.650;25.368;2024-01-07T07:51:26;12.70;;;5.75;;
84864;SDS011;75122;41.650;25.368;2024-01-07T07:53:51;7.97;;;3.45;;
84864;SDS011;75122;41.650;25.368;2024-01-07T07:56:17;8.85;;;4.65;;
84864;SDS011;75122;41.650;25.368;2024-01-07T07:58:42;12.50;;;4.45;;
84864;SDS011;75122;41.650;25.368;2024-01-07T08:01:08;11.70;;;6.60;;
84864;SDS011;75122;41.650;25.368;2024-01-07T08:03:33;9.65;;;2.15;;
84864;SDS011;75122;41.650;25.368;2024-01-07T08:05:59;11.70;;;3.50;;
84864;SDS011;75122;41.650;25.368;2024-01-07T08:08:25;10.70;;;2.97;;
84864;SDS011;75122;41.650;25.368;2024-01-07T08:10:50;14.70;;;3.45;;
84864;SDS011;75122;41.650;25.368;2024-01-07T08:13:16;9.75;;;2.75;;
84864;SDS011;75122;41.650;25.368;2024-01-07T08:15:41;12.05;;;2.55;;
84864;SDS011;75122;41.650;25.368;2024-01-07T08:18:07;14.23;;;2.05;;
84864;SDS011;75122;41.650;25.368;2024-01-07T08:20:32;11.38;;;2.50;;
84864;SDS011;75122;41.650;25.368;2024-01-07T08:22:57;9.07;;;2.03;;
84864;SDS011;75122;41.650;25.368;2024-01-07T08:25:23;8.82;;;3.15;;
84864;SDS011;75122;41.650;25.368;2024-01-07T08:27:48;4.65;;;1.65;;
84864;SDS011;75122;41.650;25.368;2024-01-07T08:30:14;14.27;;;1.75;;
84864;SDS011;75122;41.650;25.368;2024-01-07T08:32:40;11.88;;;3.40;;
84864;SDS011;75122;41.650;25.368;2024-01-07T08:35:05;9.52;;;1.90;;
84864;SDS011;75122;41.650;25.368;2024-01-07T08:37:31;10.05;;;1.77;;
84864;SDS011;75122;41.650;25.368;2024-01-07T08:39:57;12.90;;;2.70;;
84864;SDS011;75122;41.650;25.368;2024-01-07T08:42:24;11.40;;;2.10;;
84864;SDS011;75122;41.650;25.368;2024-01-07T08:44:49;12.07;;;2.67;;
84864;SDS011;75122;41.650;25.368;2024-01-07T08:47:15;6.60;;;1.80;;
84864;SDS011;75122;41.650;25.368;2024-01-07T08:49:40;13.85;;;2.25;;
84864;SDS011;75122;41.650;25.368;2024-01-07T08:52:06;13.10;;;3.88;;
84864;SDS011;75122;41.650;25.368;2024-01-07T08:54:31;13.10;;;2.67;;
84864;SDS011;75122;41.650;25.368;2024-01-07T08:56:58;8.20;;;1.80;;
84864;SDS011;75122;41.650;25.368;2024-01-07T08:59:23;20.25;;;2.60;;
84864;SDS011;75122;41.650;25.368;2024-01-07T09:01:49;17.15;;;2.95;;
84864;SDS011;75122;41.650;25.368;2024-01-07T09:04:15;17.75;;;2.63;;
84864;SDS011;75122;41.650;25.368;2024-01-07T09:06:42;12.57;;;2.15;;
84864;SDS011;75122;41.650;25.368;2024-01-07T09:09:08;8.63;;;2.15;;
84864;SDS011;75122;41.650;25.368;2024-01-07T09:11:34;13.95;;;2.85;;
84864;SDS011;75122;41.650;25.368;2024-01-07T09:14:00;13.45;;;2.83;;
84864;SDS011;75122;41.650;25.368;2024-01-07T09:16:26;14.80;;;3.75;;
84864;SDS011;75122;41.650;25.368;2024-01-07T09:18:51;10.40;;;2.67;;
84864;SDS011;75122;41.650;25.368;2024-01-07T09:21:17;11.90;;;3.47;;
84864;SDS011;75122;41.650;25.368;2024-01-07T09:23:43;11.15;;;2.42;;
84864;SDS011;75122;41.650;25.368;2024-01-07T09:26:09;16.38;;;2.90;;
84864;SDS011;75122;41.650;25.368;2024-01-07T09:28:34;18.83;;;3.70;;
84864;SDS011;75122;41.650;25.368;2024-01-07T09:31:00;8.88;;;1.95;;
84864;SDS011;75122;41.650;25.368;2024-01-07T09:33:25;11.25;;;2.47;;
84864;SDS011;75122;41.650;25.368;2024-01-07T09:35:51;19.83;;;3.08;;
84864;SDS011;75122;41.650;25.368;2024-01-07T09:38:16;15.90;;;2.13;;
84864;SDS011;75122;41.650;25.368;2024-01-07T09:40:42;21.45;;;3.00;;
84864;SDS011;75122;41.650;25.368;2024-01-07T09:43:08;13.43;;;2.30;;
84864;SDS011;75122;41.650;25.368;2024-01-07T09:45:35;13.40;;;2.50;;
84864;SDS011;75122;41.650;25.368;2024-01-07T09:48:01;9.40;;;1.90;;
84864;SDS011;75122;41.650;25.368;2024-01-07T09:50:28;13.63;;;2.15;;
84864;SDS011;75122;41.650;25.368;2024-01-07T09:52:53;13.40;;;2.28;;
84864;SDS011;75122;41.650;25.368;2024-01-07T09:55:27;15.88;;;2.58;;
84864;SDS011;75122;41.650;25.368;2024-01-07T09:58:02;12.77;;;3.15;;
84864;SDS011;75122;41.650;25.368;2024-01-07T10:00:28;9.38;;;2.25;;
84864;SDS011;75122;41.650;25.368;2024-01-07T10:02:54;14.02;;;2.53;;
84864;SDS011;75122;41.650;25.368;2024-01-07T10:05:20;11.18;;;2.80;;
84864;SDS011;75122;41.650;25.368;2024-01-07T10:07:46;21.80;;;4.57;;
84864;SDS011;75122;41.650;25.368;2024-01-07T10:10:14;17.17;;;4.47;;
84864;SDS011;75122;41.650;25.368;2024-01-07T10:12:40;15.13;;;3.28;;
84864;SDS011;75122;41.650;25.368;2024-01-07T10:15:06;16.65;;;3.63;;
84864;SDS011;75122;41.650;25.368;2024-01-07T10:17:32;20.42;;;2.20;;
84864;SDS011;75122;41.650;25.368;2024-01-07T10:19:58;11.45;;;2.55;;
84864;SDS011;75122;41.650;25.368;2024-01-07T10:22:23;6.97;;;2.53;;
84864;SDS011;75122;41.650;25.368;2024-01-07T10:24:51;8.85;;;2.47;;
84864;SDS011;75122;41.650;25.368;2024-01-07T10:27:17;15.68;;;4.20;;
84864;SDS011;75122;41.650;25.368;2024-01-07T10:29:42;17.45;;;2.80;;
84864;SDS011;75122;41.650;25.368;2024-01-07T10:32:08;13.27;;;2.80;;
84864;SDS011;75122;41.650;25.368;2024-01-07T10:34:34;12.00;;;3.20;;
84864;SDS011;75122;41.650;25.368;2024-01-07T10:37:01;15.20;;;3.05;;
84864;SDS011;75122;41.650;25.368;2024-01-07T10:39:28;12.23;;;2.40;;
84864;SDS011;75122;41.650;25.368;2024-01-07T10:41:54;13.20;;;2.80;;
84864;SDS011;75122;41.650;25.368;2024-01-07T10:44:26;12.45;;;2.53;;
84864;SDS011;75122;41.650;25.368;2024-01-07T10:46:54;17.38;;;4.32;;
84864;SDS011;75122;41.650;25.368;2024-01-07T10:49:21;12.00;;;3.22;;
84864;SDS011;75122;41.650;25.368;2024-01-07T10:54:30;15.85;;;3.05;;
84864;SDS011;75122;41.650;25.368;2024-01-07T10:56:58;10.07;;;2.42;;
84864;SDS011;75122;41.650;25.368;2024-01-07T10:59:26;9.70;;;2.17;;
84864;SDS011;75122;41.650;25.368;2024-01-07T11:01:53;9.48;;;2.15;;
84864;SDS011;75122;41.650;25.368;2024-01-07T11:10:10;13.13;;;2.90;;
84864;SDS011;75122;41.650;25.368;2024-01-07T11:12:39;16.77;;;3.75;;
84864;SDS011;75122;41.650;25.368;2024-01-07T11:15:06;14.85;;;2.55;;
84864;SDS011;75122;41.650;25.368;2024-01-07T11:19:59;10.60;;;2.60;;
84864;SDS011;75122;41.650;25.368;2024-01-07T11:24:58;25.13;;;3.40;;
84864;SDS011;75122;41.650;25.368;2024-01-07T11:27:26;19.13;;;3.58;;
84864;SDS011;75122;41.650;25.368;2024-01-07T11:30:01;15.48;;;2.33;;
84864;SDS011;75122;41.650;25.368;2024-01-07T11:32:31;11.45;;;2.55;;
84864;SDS011;75122;41.650;25.368;2024-01-07T11:34:58;10.48;;;2.88;;
84864;SDS011;75122;41.650;25.368;2024-01-07T11:37:24;7.72;;;2.83;;
84864;SDS011;75122;41.650;25.368;2024-01-07T11:39:51;16.27;;;3.35;;
84864;SDS011;75122;41.650;25.368;2024-01-07T11:42:20;14.82;;;3.55;;
84864;SDS011;75122;41.650;25.368;2024-01-07T11:44:52;22.10;;;6.80;;
84864;SDS011;75122;41.650;25.368;2024-01-07T11:47:19;14.20;;;2.88;;
84864;SDS011;75122;41.650;25.368;2024-01-07T11:49:46;10.65;;;2.65;;
84864;SDS011;75122;41.650;25.368;2024-01-07T11:52:12;12.75;;;2.53;;
84864;SDS011;75122;41.650;25.368;2024-01-07T11:54:38;8.57;;;2.10;;
84864;SDS011;75122;41.650;25.368;2024-01-07T11:57:04;10.50;;;3.10;;
84864;SDS011;75122;41.650;25.368;2024-01-07T11:59:31;16.10;;;3.72;;
84864;SDS011;75122;41.650;25.368;2024-01-07T12:01:59;21.33;;;5.38;;
84864;SDS011;75122;41.650;25.368;2024-01-07T12:04:24;17.20;;;5.18;;
84864;SDS011;75122;41.650;25.368;2024-01-07T12:06:50;15.98;;;4.00;;
84864;SDS011;75122;41.650;25.368;2024-01-07T12:09:16;24.40;;;7.82;;
84864;SDS011;75122;41.650;25.368;2024-01-07T12:11:41;13.75;;;4.72;;
84864;SDS011;75122;41.650;25.368;2024-01-07T12:14:08;19.00;;;5.72;;
84864;SDS011;75122;41.650;25.368;2024-01-07T12:16:35;9.00;;;4.00;;
84864;SDS011;75122;41.650;25.368;2024-01-07T12:19:00;14.35;;;4.15;;
84864;SDS011;75122;41.650;25.368;2024-01-07T12:21:26;21.83;;;3.30;;
84864;SDS011;75122;41.650;25.368;2024-01-07T12:23:54;37.35;;;14.10;;
84864;SDS011;75122;41.650;25.368;2024-01-07T12:26:25;19.55;;;6.22;;
84864;SDS011;75122;41.650;25.368;2024-01-07T12:28:52;15.15;;;4.95;;
84864;SDS011;75122;41.650;25.368;2024-01-07T12:31:18;13.60;;;2.53;;
84864;SDS011;75122;41.650;25.368;2024-01-07T12:33:44;20.83;;;5.78;;
84864;SDS011;75122;41.650;25.368;2024-01-07T12:36:12;13.70;;;2.97;;
84864;SDS011;75122;41.650;25.368;2024-01-07T12:38:37;11.35;;;3.60;;
84864;SDS011;75122;41.650;25.368;2024-01-07T12:41:03;14.93;;;1.98;;
84864;SDS011;75122;41.650;25.368;2024-01-07T12:43:29;11.93;;;3.75;;
84864;SDS011;75122;41.650;25.368;2024-01-07T12:45:55;19.33;;;3.45;;
84864;SDS011;75122;41.650;25.368;2024-01-07T12:48:21;10.90;;;2.67;;
84864;SDS011;75122;41.650;25.368;2024-01-07T12:50:48;6.97;;;2.45;;
84864;SDS011;75122;41.650;25.368;2024-01-07T12:53:14;14.88;;;4.05;;
84864;SDS011;75122;41.650;25.368;2024-01-07T12:55:39;15.52;;;3.63;;
84864;SDS011;75122;41.650;25.368;2024-01-07T12:58:05;18.70;;;3.50;;
84864;SDS011;75122;41.650;25.368;2024-01-07T13:00:30;13.63;;;5.78;;
84864;SDS011;75122;41.650;25.368;2024-01-07T13:02:56;14.18;;;3.72;;
84864;SDS011;75122;41.650;25.368;2024-01-07T13:05:22;18.40;;;4.78;;
84864;SDS011;75122;41.650;25.368;2024-01-07T13:07:48;13.93;;;4.03;;
84864;SDS011;75122;41.650;25.368;2024-01-07T13:10:15;19.30;;;3.35;;
84864;SDS011;75122;41.650;25.368;2024-01-07T13:12:40;20.48;;;6.22;;
84864;SDS011;75122;41.650;25.368;2024-01-07T13:15:06;15.40;;;3.03;;
84864;SDS011;75122;41.650;25.368;2024-01-07T13:17:32;22.10;;;7.07;;
84864;SDS011;75122;41.650;25.368;2024-01-07T13:19:58;17.30;;;2.90;;
84864;SDS011;75122;41.650;25.368;2024-01-07T13:22:24;18.25;;;4.30;;
84864;SDS011;75122;41.650;25.368;2024-01-07T13:24:50;22.98;;;4.22;;
84864;SDS011;75122;41.650;25.368;2024-01-07T13:27:16;13.30;;;2.55;;
84864;SDS011;75122;41.650;25.368;2024-01-07T13:29:43;13.93;;;2.10;;
84864;SDS011;75122;41.650;25.368;2024-01-07T13:32:12;24.17;;;5.10;;
84864;SDS011;75122;41.650;25.368;2024-01-07T13:34:42;11.10;;;2.97;;
84864;SDS011;75122;41.650;25.368;2024-01-07T13:37:07;19.23;;;3.28;;
84864;SDS011;75122;41.650;25.368;2024-01-07T13:39:33;16.42;;;3.10;;
84864;SDS011;75122;41.650;25.368;2024-01-07T13:41:58;12.32;;;4.38;;
84864;SDS011;75122;41.650;25.368;2024-01-07T13:44:24;13.63;;;3.88;;
84864;SDS011;75122;41.650;25.368;2024-01-07T13:46:49;16.25;;;4.28;;
84864;SDS011;75122;41.650;25.368;2024-01-07T13:49:17;20.17;;;4.40;;
84864;SDS011;75122;41.650;25.368;2024-01-07T13:51:42;24.98;;;4.57;;
84864;SDS011;75122;41.650;25.368;2024-01-07T13:54:09;10.70;;;3.03;;
84864;SDS011;75122;41.650;25.368;2024-01-07T13:56:38;10.18;;;2.05;;
84864;SDS011;75122;41.650;25.368;2024-01-07T13:59:07;16.30;;;2.67;;
84864;SDS011;75122;41.650;25.368;2024-01-07T14:01:33;18.30;;;3.38;;
84864;SDS011;75122;41.650;25.368;2024-01-07T14:03:58;21.42;;;3.67;;
84864;SDS011;75122;41.650;25.368;2024-01-07T14:06:24;12.93;;;3.65;;
84864;SDS011;75122;41.650;25.368;2024-01-07T14:08:49;17.30;;;3.08;;
84864;SDS011;75122;41.650;25.368;2024-01-07T14:11:15;11.05;;;2.55;;
84864;SDS011;75122;41.650;25.368;2024-01-07T14:13:40;19.02;;;5.22;;
84864;SDS011;75122;41.650;25.368;2024-01-07T14:16:09;14.13;;;5.22;;
84864;SDS011;75122;41.650;25.368;2024-01-07T14:18:34;15.93;;;6.00;;
84864;SDS011;75122;41.650;25.368;2024-01-07T14:20:59;20.58;;;5.18;;
84864;SDS011;75122;41.650;25.368;2024-01-07T14:23:25;13.85;;;4.57;;
84864;SDS011;75122;41.650;25.368;2024-01-07T14:25:50;21.67;;;8.57;;
84864;SDS011;75122;41.650;25.368;2024-01-07T14:28:16;41.13;;;18.02;;
84864;SDS011;75122;41.650;25.368;2024-01-07T14:30:41;35.97;;;15.75;;
84864;SDS011;75122;41.650;25.368;2024-01-07T14:33:06;22.40;;;8.18;;